Time;durP1;ratioP1;P1;durP2;ratioP2;P2;SDS_P1;SDS_P2;PMS_P1;PMS_P2;Temp;Humidity;BMP_temperature;BMP_pressure;BME280_temperature;BME280_humidity;BME280_pressure;Samples;Min_cycle;Max_cycle;Signal;HPM_P1;HPM_P2
2024/04/29 00:00:27;;;;;;;1.35;0.70;;;;;;;;;;5521017;26;20370;-79
2024/04/29 00:02:53;;;;;;;1.70;0.80;;;;;;;;;;5528986;26;20363;-79
2024/04/29 00:05:19;;;;;;;0.90;0.73;;;;;;;;;;5529687;26;20331;-79
2024/04/29 00:07:45;;;;;;;0.73;0.70;;;;;;;;;;5529632;26;20363;-79
2024/04/29 00:10:11;;;;;;;0.80;0.70;;;;;;;;;;5529400;26;20332;-79
2024/04/29 00:12:37;;;;;;;1.00;0.60;;;;;;;;;;5529622;26;20406;-79
2024/04/29 00:15:03;;;;;;;0.90;0.70;;;;;;;;;;5529051;26;20383;-79
2024/04/29 00:17:29;;;;;;;0.80;0.60;;;;;;;;;;5530692;26;20327;-79
2024/04/29 00:19:55;;;;;;;0.77;0.77;;;;;;;;;;5529509;26;20914;-79
2024/04/29 00:22:21;;;;;;;0.70;0.70;;;;;;;;;;5530161;26;20339;-79
2024/04/29 00:24:47;;;;;;;0.80;0.70;;;;;;;;;;5530185;26;20702;-79
2024/04/29 00:27:13;;;;;;;1.30;0.80;;;;;;;;;;5530385;26;20335;-79
2024/04/29 00:29:39;;;;;;;1.60;0.80;;;;;;;;;;5528809;26;20362;-79
2024/04/29 00:32:05;;;;;;;0.80;0.75;;;;;;;;;;5527493;26;20339;-79
2024/04/29 00:34:31;;;;;;;0.82;0.80;;;;;;;;;;5495941;26;20335;-79
2024/04/29 00:36:58;;;;;;;1.38;0.90;;;;;;;;;;5528316;26;20372;-79
2024/04/29 00:39:23;;;;;;;1.08;0.98;;;;;;;;;;5528479;26;20370;-79
2024/04/29 00:41:49;;;;;;;1.05;0.90;;;;;;;;;;5528186;26;20328;-79
2024/04/29 00:44:15;;;;;;;0.70;0.60;;;;;;;;;;5528528;26;20366;-79
2024/04/29 00:46:41;;;;;;;1.47;0.93;;;;;;;;;;5528376;26;20431;-79
2024/04/29 00:49:08;;;;;;;0.80;0.68;;;;;;;;;;5494260;26;20390;-79
2024/04/29 00:51:34;;;;;;;1.10;0.77;;;;;;;;;;5526904;26;20323;-79
2024/04/29 00:54:01;;;;;;;0.83;0.80;;;;;;;;;;5527897;26;20407;-79
2024/04/29 00:56:27;;;;;;;0.90;0.70;;;;;;;;;;5511893;26;20339;-79
2024/04/29 00:58:53;;;;;;;0.70;0.70;;;;;;;;;;5528074;26;20363;-79
2024/04/29 01:01:19;;;;;;;1.00;0.80;;;;;;;;;;5527071;26;20698;-79
2024/04/29 01:03:46;;;;;;;0.70;0.70;;;;;;;;;;5528078;26;20885;-79
2024/04/29 01:06:12;;;;;;;1.20;0.70;;;;;;;;;;5527570;26;20879;-79
2024/04/29 01:08:38;;;;;;;1.13;0.82;;;;;;;;;;5527342;26;20331;-79
2024/04/29 01:11:05;;;;;;;1.30;1.02;;;;;;;;;;5526840;26;20387;-79
2024/04/29 01:13:31;;;;;;;1.10;1.00;;;;;;;;;;5527629;26;20704;-79
2024/04/29 01:15:57;;;;;;;1.10;1.00;;;;;;;;;;5527844;26;20323;-79
2024/04/29 01:18:23;;;;;;;1.10;1.00;;;;;;;;;;5494453;26;20710;-79
2024/04/29 01:20:49;;;;;;;1.10;0.93;;;;;;;;;;5527493;26;20436;-79
2024/04/29 01:23:15;;;;;;;0.80;0.80;;;;;;;;;;5527577;26;20364;-79
2024/04/29 01:25:41;;;;;;;0.70;0.70;;;;;;;;;;5527709;26;20339;-79
2024/04/29 01:28:07;;;;;;;1.30;0.90;;;;;;;;;;5527764;26;20324;-79
2024/04/29 01:30:33;;;;;;;2.00;1.07;;;;;;;;;;5527253;26;20689;-79
2024/04/29 01:32:59;;;;;;;1.15;1.00;;;;;;;;;;5527286;26;20355;-79
2024/04/29 01:35:25;;;;;;;2.20;1.00;;;;;;;;;;5527401;26;20704;-79
2024/04/29 01:37:51;;;;;;;1.30;1.00;;;;;;;;;;5527519;26;20316;-79
2024/04/29 01:40:17;;;;;;;2.00;1.20;;;;;;;;;;5526586;26;20368;-79
2024/04/29 01:42:43;;;;;;;1.30;0.85;;;;;;;;;;5527108;26;20335;-79
2024/04/29 01:45:09;;;;;;;1.45;1.10;;;;;;;;;;5527470;26;20425;-79
2024/04/29 01:47:35;;;;;;;1.70;1.08;;;;;;;;;;5526998;26;20320;-79
2024/04/29 01:50:01;;;;;;;0.98;0.90;;;;;;;;;;5527058;26;20357;-79
2024/04/29 01:52:27;;;;;;;1.10;1.00;;;;;;;;;;5523813;26;20666;-79
2024/04/29 01:54:53;;;;;;;1.08;0.93;;;;;;;;;;5488677;26;20334;-79
2024/04/29 01:57:19;;;;;;;1.88;1.08;;;;;;;;;;5516901;26;20680;-79
2024/04/29 01:59:45;;;;;;;1.20;1.10;;;;;;;;;;5526714;26;20335;-79
2024/04/29 02:02:11;;;;;;;1.58;1.00;;;;;;;;;;5526641;26;20331;-79
2024/04/29 02:04:37;;;;;;;1.48;1.08;;;;;;;;;;5520089;26;20323;-79
2024/04/29 02:07:03;;;;;;;1.27;1.10;;;;;;;;;;5477081;26;20376;-79
2024/04/29 02:09:29;;;;;;;1.43;1.33;;;;;;;;;;5526628;26;20424;-79
2024/04/29 02:11:55;;;;;;;1.45;1.35;;;;;;;;;;5527319;26;20811;-79
2024/04/29 02:14:21;;;;;;;1.13;1.02;;;;;;;;;;5526930;26;20328;-79
2024/04/29 02:16:47;;;;;;;1.10;1.00;;;;;;;;;;5526486;26;20673;-79
2024/04/29 02:19:13;;;;;;;1.33;1.23;;;;;;;;;;5526838;26;20335;-79
2024/04/29 02:21:39;;;;;;;2.38;1.23;;;;;;;;;;5526837;26;20323;-79
2024/04/29 02:24:05;;;;;;;1.70;1.10;;;;;;;;;;5526443;26;20791;-79
2024/04/29 02:26:31;;;;;;;1.40;1.13;;;;;;;;;;5526503;26;20852;-79
2024/04/29 02:28:57;;;;;;;1.90;0.97;;;;;;;;;;5528643;26;20324;-79
2024/04/29 02:31:22;;;;;;;1.40;1.20;;;;;;;;;;5529847;26;20658;-79
2024/04/29 02:33:48;;;;;;;1.48;1.25;;;;;;;;;;5529207;26;20332;-79
2024/04/29 02:36:14;;;;;;;3.42;1.30;;;;;;;;;;5529054;26;20320;-79
2024/04/29 02:38:41;;;;;;;1.40;1.30;;;;;;;;;;5530438;26;20669;-79
2024/04/29 02:41:07;;;;;;;1.58;1.23;;;;;;;;;;5528784;26;20817;-79
2024/04/29 02:43:33;;;;;;;1.38;1.27;;;;;;;;;;5528912;26;20365;-79
2024/04/29 02:45:59;;;;;;;2.58;1.48;;;;;;;;;;5528619;26;20331;-79
2024/04/29 02:48:25;;;;;;;1.60;1.30;;;;;;;;;;5528933;26;20327;-79
2024/04/29 02:50:50;;;;;;;2.55;1.50;;;;;;;;;;5527195;26;20331;-79
2024/04/29 02:53:16;;;;;;;1.45;1.17;;;;;;;;;;5524230;26;20332;-79
2024/04/29 02:55:42;;;;;;;1.15;1.00;;;;;;;;;;5511016;26;20330;-79
2024/04/29 02:58:08;;;;;;;2.42;1.40;;;;;;;;;;5527299;26;20934;-79
2024/04/29 03:00:34;;;;;;;1.30;1.20;;;;;;;;;;5528277;26;20335;-79
2024/04/29 03:03:00;;;;;;;1.80;1.40;;;;;;;;;;5494307;26;20328;-79
2024/04/29 03:05:26;;;;;;;2.17;1.30;;;;;;;;;;5527695;26;20336;-79
2024/04/29 03:07:52;;;;;;;1.65;1.40;;;;;;;;;;5527047;26;20352;-79
2024/04/29 03:10:18;;;;;;;1.23;1.13;;;;;;;;;;5528651;26;20710;-79
2024/04/29 03:12:44;;;;;;;2.00;1.35;;;;;;;;;;5528554;26;20323;-79
2024/04/29 03:15:10;;;;;;;1.30;1.20;;;;;;;;;;5528068;26;20343;-79
2024/04/29 03:17:36;;;;;;;1.67;1.20;;;;;;;;;;5527020;26;20324;-79
2024/04/29 03:20:03;;;;;;;1.45;1.10;;;;;;;;;;5494058;26;20327;-79
2024/04/29 03:22:29;;;;;;;2.00;1.10;;;;;;;;;;5526033;26;20324;-79
2024/04/29 03:24:55;;;;;;;1.90;1.40;;;;;;;;;;5526802;26;20429;-79
2024/04/29 03:27:21;;;;;;;1.50;1.20;;;;;;;;;;5525923;26;20367;-79
2024/04/29 03:29:47;;;;;;;2.20;1.30;;;;;;;;;;5526026;26;20766;-79
2024/04/29 03:32:13;;;;;;;1.55;1.40;;;;;;;;;;5526372;26;20327;-79
2024/04/29 03:34:38;;;;;;;4.13;1.50;;;;;;;;;;5526702;26;20360;-79
2024/04/29 03:37:04;;;;;;;1.60;1.43;;;;;;;;;;5529971;26;20373;-79
2024/04/29 03:39:30;;;;;;;2.30;1.33;;;;;;;;;;5529221;26;20352;-79
2024/04/29 03:41:56;;;;;;;2.00;1.40;;;;;;;;;;5529463;26;20750;-79
2024/04/29 03:44:23;;;;;;;2.20;1.50;;;;;;;;;;5528957;26;20340;-79
2024/04/29 03:46:48;;;;;;;1.55;1.25;;;;;;;;;;5529103;26;20654;-79
2024/04/29 03:49:15;;;;;;;1.75;1.20;;;;;;;;;;5529402;26;20418;-79
2024/04/29 03:51:41;;;;;;;1.10;1.10;;;;;;;;;;5528730;26;20714;-79
2024/04/29 03:54:07;;;;;;;1.20;1.10;;;;;;;;;;5526191;26;20364;-79
2024/04/29 03:56:36;;;;;;;1.70;1.30;;;;;;;;;;5513183;26;20323;-79
2024/04/29 03:59:02;;;;;;;1.65;1.35;;;;;;;;;;5529028;26;20328;-79
2024/04/29 04:01:28;;;;;;;2.40;1.30;;;;;;;;;;5529388;26;20768;-79
2024/04/29 04:03:54;;;;;;;2.50;1.50;;;;;;;;;;5496992;26;20361;-79
2024/04/29 04:06:20;;;;;;;1.45;1.25;;;;;;;;;;5496812;26;20395;-79
2024/04/29 04:08:46;;;;;;;1.50;1.30;;;;;;;;;;5523336;26;20811;-79
2024/04/29 04:11:12;;;;;;;2.92;1.23;;;;;;;;;;5529776;26;20359;-79
2024/04/29 04:13:39;;;;;;;1.80;1.33;;;;;;;;;;5530466;26;20921;-79
2024/04/29 04:16:05;;;;;;;1.30;1.20;;;;;;;;;;5530622;26;20323;-79
2024/04/29 04:18:31;;;;;;;1.27;1.17;;;;;;;;;;5530593;26;20332;-79
2024/04/29 04:20:56;;;;;;;1.30;1.17;;;;;;;;;;5530864;26;20475;-79
2024/04/29 04:23:22;;;;;;;1.52;1.20;;;;;;;;;;5529360;26;20331;-79
2024/04/29 04:25:48;;;;;;;2.25;1.13;;;;;;;;;;5530797;26;20428;-79
2024/04/29 04:28:14;;;;;;;1.95;1.13;;;;;;;;;;5530570;26;20328;-79
2024/04/29 04:30:40;;;;;;;1.20;1.10;;;;;;;;;;5530114;26;20323;-79
2024/04/29 04:33:06;;;;;;;1.75;1.30;;;;;;;;;;5530532;26;20808;-79
2024/04/29 04:35:32;;;;;;;2.17;1.25;;;;;;;;;;5531895;26;20384;-79
2024/04/29 04:37:58;;;;;;;1.65;1.30;;;;;;;;;;5530827;26;20824;-79
2024/04/29 04:40:24;;;;;;;1.77;1.20;;;;;;;;;;5531049;26;20346;-79
2024/04/29 04:42:50;;;;;;;2.65;1.50;;;;;;;;;;5531240;26;20841;-79
2024/04/29 04:45:16;;;;;;;1.92;1.30;;;;;;;;;;5529677;26;20360;-79
2024/04/29 04:47:42;;;;;;;2.85;1.40;;;;;;;;;;5529221;26;20909;-79
2024/04/29 04:50:08;;;;;;;2.00;1.20;;;;;;;;;;5530327;26;20339;-79
2024/04/29 04:52:34;;;;;;;1.55;1.20;;;;;;;;;;5530555;26;20661;-79
2024/04/29 04:55:00;;;;;;;1.50;1.20;;;;;;;;;;5528566;26;20332;-79
2024/04/29 04:57:26;;;;;;;2.25;1.50;;;;;;;;;;5530563;26;20327;-79
2024/04/29 04:59:52;;;;;;;2.33;1.73;;;;;;;;;;5531075;26;20882;-79
2024/04/29 05:02:18;;;;;;;1.67;1.30;;;;;;;;;;5530420;26;20375;-79
2024/04/29 05:04:44;;;;;;;1.50;1.40;;;;;;;;;;5530314;26;20328;-79
2024/04/29 05:07:10;;;;;;;2.50;1.50;;;;;;;;;;5530803;26;20319;-79
2024/04/29 05:09:36;;;;;;;4.60;1.30;;;;;;;;;;5529390;26;20327;-79
2024/04/29 05:12:02;;;;;;;2.03;1.43;;;;;;;;;;5530205;26;20324;-79
2024/04/29 05:14:28;;;;;;;2.10;1.45;;;;;;;;;;5530191;26;20372;-79
2024/04/29 05:16:54;;;;;;;1.92;1.30;;;;;;;;;;5496809;26;20376;-79
2024/04/29 05:19:20;;;;;;;1.80;1.30;;;;;;;;;;5530345;26;20808;-79
2024/04/29 05:21:46;;;;;;;1.77;1.60;;;;;;;;;;5529948;26;20452;-79
2024/04/29 05:24:12;;;;;;;2.70;1.92;;;;;;;;;;5531473;26;20371;-79
2024/04/29 05:26:38;;;;;;;1.83;1.40;;;;;;;;;;5529286;26;20331;-79
2024/04/29 05:29:04;;;;;;;2.63;1.52;;;;;;;;;;5530105;26;20405;-79
2024/04/29 05:31:30;;;;;;;1.77;1.35;;;;;;;;;;5530067;26;20323;-79
2024/04/29 05:33:56;;;;;;;5.22;3.30;;;;;;;;;;5530061;26;20331;-79
2024/04/29 05:36:22;;;;;;;1.67;1.58;;;;;;;;;;5529742;26;20335;-79
2024/04/29 05:38:48;;;;;;;2.47;1.83;;;;;;;;;;5530586;26;20324;-79
2024/04/29 05:41:14;;;;;;;1.88;1.67;;;;;;;;;;5531931;26;20339;-79
2024/04/29 05:43:40;;;;;;;2.78;2.30;;;;;;;;;;5530352;26;20324;-79
2024/04/29 05:46:06;;;;;;;1.67;1.50;;;;;;;;;;5531179;26;20894;-79
2024/04/29 05:48:32;;;;;;;2.30;1.88;;;;;;;;;;5532611;26;20331;-79
2024/04/29 05:50:59;;;;;;;2.42;1.60;;;;;;;;;;5530518;26;20332;-79
2024/04/29 05:53:25;;;;;;;1.85;1.75;;;;;;;;;;5530961;26;20393;-79
2024/04/29 05:55:51;;;;;;;2.20;2.03;;;;;;;;;;5519614;26;20332;-79
2024/04/29 05:58:17;;;;;;;3.30;2.10;;;;;;;;;;5530012;26;20328;-79
2024/04/29 06:00:43;;;;;;;3.45;2.10;;;;;;;;;;5525585;26;20327;-80
2024/04/29 06:03:09;;;;;;;2.58;1.90;;;;;;;;;;5529567;26;20682;-79
2024/04/29 06:05:35;;;;;;;2.20;1.77;;;;;;;;;;5496156;26;20367;-79
2024/04/29 06:08:01;;;;;;;2.97;1.85;;;;;;;;;;5527956;26;20820;-80
2024/04/29 06:10:27;;;;;;;1.98;1.77;;;;;;;;;;5527958;26;20339;-80
2024/04/29 06:12:53;;;;;;;3.50;1.80;;;;;;;;;;5529256;26;20371;-80
2024/04/29 06:15:19;;;;;;;2.63;2.07;;;;;;;;;;5529998;26;20362;-79
2024/04/29 06:17:45;;;;;;;2.72;1.90;;;;;;;;;;5529067;26;20319;-80
2024/04/29 06:20:11;;;;;;;2.67;1.80;;;;;;;;;;5528703;26;20686;-80
2024/04/29 06:22:37;;;;;;;3.22;1.83;;;;;;;;;;5528990;26;20364;-80
2024/04/29 06:25:03;;;;;;;2.67;2.40;;;;;;;;;;5528860;26;20432;-79
2024/04/29 06:27:29;;;;;;;4.32;2.63;;;;;;;;;;5528563;26;20375;-80
2024/04/29 06:29:55;;;;;;;2.92;2.40;;;;;;;;;;5529028;26;20328;-80
2024/04/29 06:32:21;;;;;;;4.28;2.90;;;;;;;;;;5529053;26;20363;-80
2024/04/29 06:34:47;;;;;;;2.90;2.60;;;;;;;;;;5529737;26;20762;-80
2024/04/29 06:37:13;;;;;;;3.10;2.47;;;;;;;;;;5527396;26;20364;-78
2024/04/29 06:39:39;;;;;;;4.07;2.75;;;;;;;;;;5527225;26;20335;-78
2024/04/29 06:42:05;;;;;;;2.63;2.30;;;;;;;;;;5527390;26;20320;-78
2024/04/29 06:44:31;;;;;;;4.07;2.75;;;;;;;;;;5528925;26;20379;-78
2024/04/29 06:46:57;;;;;;;4.68;3.03;;;;;;;;;;5528834;26;20354;-79
2024/04/29 06:49:23;;;;;;;3.58;3.00;;;;;;;;;;5528287;26;20344;-79
2024/04/29 06:51:49;;;;;;;4.05;2.70;;;;;;;;;;5527642;26;20328;-78
2024/04/29 06:54:15;;;;;;;4.03;2.67;;;;;;;;;;5527598;26;20363;-79
2024/04/29 06:56:41;;;;;;;4.18;2.83;;;;;;;;;;5512362;26;20358;-79
2024/04/29 06:59:07;;;;;;;3.20;2.47;;;;;;;;;;5525722;26;20324;-79
2024/04/29 07:01:33;;;;;;;3.83;2.30;;;;;;;;;;5527463;26;20841;-78
2024/04/29 07:03:59;;;;;;;1.97;1.77;;;;;;;;;;5527662;26;20335;-78
2024/04/29 07:06:25;;;;;;;3.13;2.60;;;;;;;;;;5525178;26;21315;-78
2024/04/29 07:08:52;;;;;;;3.75;2.22;;;;;;;;;;5524109;26;20335;-78
2024/04/29 07:11:18;;;;;;;3.63;2.57;;;;;;;;;;5524160;26;20363;-79
2024/04/29 07:13:44;;;;;;;3.58;2.13;;;;;;;;;;5526138;26;20856;-80
2024/04/29 07:16:11;;;;;;;3.25;2.30;;;;;;;;;;5524644;26;20327;-78
2024/04/29 07:18:37;;;;;;;3.30;2.60;;;;;;;;;;5524336;26;20356;-78
2024/04/29 07:21:04;;;;;;;2.65;2.10;;;;;;;;;;5524512;26;20668;-78
2024/04/29 07:23:29;;;;;;;2.38;2.10;;;;;;;;;;5524613;26;20367;-78
2024/04/29 07:25:55;;;;;;;2.33;1.77;;;;;;;;;;5524621;26;20343;-78
2024/04/29 07:28:21;;;;;;;2.27;1.90;;;;;;;;;;5524186;26;20371;-78
2024/04/29 07:30:50;;;;;;;2.97;1.85;;;;;;;;;;5524459;26;20698;-78
2024/04/29 07:33:16;;;;;;;4.85;1.88;;;;;;;;;;5525630;26;20391;-78
2024/04/29 07:35:44;;;;;;;1.48;1.13;;;;;;;;;;5527309;26;20328;-79
2024/04/29 07:38:12;;;;;;;1.38;1.00;;;;;;;;;;5527308;26;20343;-79
2024/04/29 07:40:38;;;;;;;1.38;1.10;;;;;;;;;;5527143;26;20343;-79
2024/04/29 07:43:04;;;;;;;3.67;1.58;;;;;;;;;;5527314;26;20414;-79
2024/04/29 07:45:31;;;;;;;2.23;1.10;;;;;;;;;;5527025;26;20332;-79
2024/04/29 07:47:57;;;;;;;1.50;1.20;;;;;;;;;;5527824;26;20383;-79
2024/04/29 07:50:23;;;;;;;2.50;1.33;;;;;;;;;;5494229;26;20339;-79
2024/04/29 07:52:49;;;;;;;1.30;1.20;;;;;;;;;;5521220;26;20453;-79
2024/04/29 07:55:15;;;;;;;1.85;1.20;;;;;;;;;;5515791;26;20345;-79
2024/04/29 07:57:43;;;;;;;3.50;1.60;;;;;;;;;;5522739;26;20356;-79
2024/04/29 08:00:09;;;;;;;2.45;1.30;;;;;;;;;;5525244;26;20367;-79
2024/04/29 08:02:35;;;;;;;2.30;1.30;;;;;;;;;;5528107;26;20500;-78
2024/04/29 08:05:02;;;;;;;1.88;1.30;;;;;;;;;;5527558;26;20775;-78
2024/04/29 08:07:28;;;;;;;1.70;1.27;;;;;;;;;;5526002;26;20429;-78
2024/04/29 08:09:54;;;;;;;1.30;1.17;;;;;;;;;;5526394;26;20387;-78
2024/04/29 08:12:20;;;;;;;1.58;1.08;;;;;;;;;;5526811;26;20347;-78
2024/04/29 08:14:46;;;;;;;1.38;1.10;;;;;;;;;;5526988;26;20366;-78
2024/04/29 08:17:12;;;;;;;3.60;1.35;;;;;;;;;;5526098;26;20339;-78
2024/04/29 08:19:38;;;;;;;1.65;1.10;;;;;;;;;;5525640;26;20379;-78
2024/04/29 08:22:04;;;;;;;1.95;1.35;;;;;;;;;;5528177;26;20392;-79
2024/04/29 08:24:30;;;;;;;1.30;1.10;;;;;;;;;;5527916;26;20335;-78
2024/04/29 08:26:56;;;;;;;2.20;1.23;;;;;;;;;;5521927;26;20666;-79
2024/04/29 08:29:22;;;;;;;1.13;0.80;;;;;;;;;;5530081;26;20327;-78
2024/04/29 08:31:48;;;;;;;2.67;1.42;;;;;;;;;;5530383;26;20689;-78
2024/04/29 08:34:14;;;;;;;3.03;1.30;;;;;;;;;;5530491;26;20363;-78
2024/04/29 08:36:43;;;;;;;3.63;0.90;;;;;;;;;;5530284;26;21048;-78
2024/04/29 08:39:09;;;;;;;2.10;1.00;;;;;;;;;;5530201;26;20391;-78
2024/04/29 08:41:41;;;;;;;2.03;1.02;;;;;;;;;;5530568;26;20420;-78
2024/04/29 08:44:11;;;;;;;1.13;0.90;;;;;;;;;;5529886;26;20324;-78
2024/04/29 08:46:37;;;;;;;2.20;1.17;;;;;;;;;;5530541;26;20324;-79
2024/04/29 08:49:05;;;;;;;1.65;0.80;;;;;;;;;;5523609;26;20348;-78
2024/04/29 08:51:31;;;;;;;1.23;0.77;;;;;;;;;;5530207;26;20437;-78
2024/04/29 08:53:57;;;;;;;2.15;0.98;;;;;;;;;;5530004;26;20327;-78
2024/04/29 08:56:23;;;;;;;1.08;0.63;;;;;;;;;;5530304;26;20363;-79
2024/04/29 08:58:49;;;;;;;2.03;0.70;;;;;;;;;;5529738;26;20359;-79
2024/04/29 09:01:20;;;;;;;1.10;0.70;;;;;;;;;;5526813;26;20331;-78
2024/04/29 09:03:46;;;;;;;1.90;0.70;;;;;;;;;;5529115;26;20799;-78
2024/04/29 09:06:14;;;;;;;5.00;0.80;;;;;;;;;;5530376;26;20327;-78
2024/04/29 09:08:43;;;;;;;1.48;0.73;;;;;;;;;;5529804;26;20383;-78
2024/04/29 09:11:09;;;;;;;1.83;0.60;;;;;;;;;;5529884;26;20331;-79
2024/04/29 09:13:36;;;;;;;1.90;0.68;;;;;;;;;;5529615;26;20685;-79
2024/04/29 09:16:02;;;;;;;0.70;0.50;;;;;;;;;;5528990;26;20327;-78
2024/04/29 09:18:29;;;;;;;1.05;0.60;;;;;;;;;;5529544;26;20328;-79
2024/04/29 09:20:55;;;;;;;1.05;0.70;;;;;;;;;;5530215;26;20406;-78
2024/04/29 09:23:21;;;;;;;2.50;0.60;;;;;;;;;;5528686;26;20356;-79
2024/04/29 09:25:49;;;;;;;1.20;0.70;;;;;;;;;;5529742;26;20324;-78
2024/04/29 09:28:20;;;;;;;1.88;0.60;;;;;;;;;;5527808;26;20319;-78
2024/04/29 09:30:46;;;;;;;1.75;0.60;;;;;;;;;;5529926;26;20324;-78
2024/04/29 09:33:13;;;;;;;2.15;0.70;;;;;;;;;;5528132;26;20394;-79
2024/04/29 09:35:43;;;;;;;0.82;0.52;;;;;;;;;;5528945;26;20324;-79
2024/04/29 09:38:10;;;;;;;1.33;0.60;;;;;;;;;;5529648;26;20372;-79
2024/04/29 09:40:36;;;;;;;0.82;0.60;;;;;;;;;;5529048;26;20363;-78
2024/04/29 09:43:04;;;;;;;3.28;0.60;;;;;;;;;;5529300;26;20367;-78
2024/04/29 09:45:30;;;;;;;1.27;0.60;;;;;;;;;;5524103;26;20439;-79
2024/04/29 09:47:59;;;;;;;2.90;0.70;;;;;;;;;;5529495;26;20873;-79
2024/04/29 09:50:25;;;;;;;1.52;0.68;;;;;;;;;;5528900;26;20320;-79
2024/04/29 09:52:52;;;;;;;2.70;0.82;;;;;;;;;;5529195;26;20335;-78
2024/04/29 09:55:21;;;;;;;0.85;0.60;;;;;;;;;;5519043;26;20326;-80
2024/04/29 09:57:49;;;;;;;1.95;0.90;;;;;;;;;;5528286;26;20650;-80
2024/04/29 10:00:16;;;;;;;1.42;0.70;;;;;;;;;;5531234;26;20324;-80
2024/04/29 10:02:42;;;;;;;1.33;0.70;;;;;;;;;;5528518;26;20375;-80
2024/04/29 10:05:08;;;;;;;1.50;0.75;;;;;;;;;;5531265;26;20366;-80
2024/04/29 10:07:34;;;;;;;1.35;0.70;;;;;;;;;;5531713;26;20419;-80
2024/04/29 10:10:02;;;;;;;3.20;0.68;;;;;;;;;;5531187;26;20327;-80
2024/04/29 10:12:31;;;;;;;2.10;0.77;;;;;;;;;;5531167;26;20859;-80
2024/04/29 10:15:08;;;;;;;1.92;0.95;;;;;;;;;;5530868;26;20328;-80
2024/04/29 10:17:34;;;;;;;2.47;0.80;;;;;;;;;;5530751;26;20320;-80
2024/04/29 10:20:00;;;;;;;1.80;0.70;;;;;;;;;;5530958;26;20682;-80
2024/04/29 10:22:32;;;;;;;2.00;0.90;;;;;;;;;;5531967;26;20320;-80
2024/04/29 10:25:17;;;;;;;1.52;0.70;;;;;;;;;;5531282;26;20360;-80
2024/04/29 10:27:44;;;;;;;1.77;0.60;;;;;;;;;;5531613;26;20335;-80
2024/04/29 10:30:10;;;;;;;1.52;0.70;;;;;;;;;;5531335;26;20324;-80
2024/04/29 10:32:36;;;;;;;1.60;0.80;;;;;;;;;;5530626;26;20424;-80
2024/04/29 10:35:02;;;;;;;1.17;0.70;;;;;;;;;;5530886;26;20335;-80
2024/04/29 10:37:28;;;;;;;1.20;0.60;;;;;;;;;;5529766;26;20364;-79
2024/04/29 10:39:54;;;;;;;2.40;0.80;;;;;;;;;;5528206;26;20391;-79
2024/04/29 10:42:20;;;;;;;2.03;0.50;;;;;;;;;;5527658;26;20356;-79
2024/04/29 10:45:00;;;;;;;2.20;0.50;;;;;;;;;;5527876;26;20327;-80
2024/04/29 10:47:27;;;;;;;1.63;0.50;;;;;;;;;;5525588;26;20320;-80
2024/04/29 10:49:55;;;;;;;3.13;0.80;;;;;;;;;;5524872;26;20324;-80
2024/04/29 10:52:21;;;;;;;4.97;0.73;;;;;;;;;;5525030;26;20338;-80
2024/04/29 10:54:47;;;;;;;2.47;0.73;;;;;;;;;;5520284;26;20729;-79
2024/04/29 10:57:13;;;;;;;1.70;0.80;;;;;;;;;;5514181;26;20946;-79
2024/04/29 10:59:40;;;;;;;1.35;0.63;;;;;;;;;;5525842;26;20344;-81
2024/04/29 11:02:06;;;;;;;1.80;0.60;;;;;;;;;;5523297;26;20327;-80
2024/04/29 11:04:32;;;;;;;1.52;0.57;;;;;;;;;;5524466;26;20335;-79
2024/04/29 11:06:58;;;;;;;2.03;0.73;;;;;;;;;;5525383;26;20375;-79
2024/04/29 11:09:24;;;;;;;2.93;0.60;;;;;;;;;;5525033;26;20372;-79
2024/04/29 11:11:50;;;;;;;4.30;0.77;;;;;;;;;;5524609;26;20820;-79
2024/04/29 11:14:16;;;;;;;3.55;0.68;;;;;;;;;;5524629;26;20316;-80
2024/04/29 11:16:42;;;;;;;1.55;0.70;;;;;;;;;;5524996;26;20315;-80
2024/04/29 11:19:08;;;;;;;1.73;0.60;;;;;;;;;;5525214;26;20407;-80
2024/04/29 11:21:34;;;;;;;1.95;0.77;;;;;;;;;;5525353;26;20355;-79
2024/04/29 11:24:00;;;;;;;2.20;0.60;;;;;;;;;;5526250;26;20328;-79
2024/04/29 11:26:26;;;;;;;1.95;0.73;;;;;;;;;;5526012;26;20718;-79
2024/04/29 11:28:52;;;;;;;2.10;0.60;;;;;;;;;;5525931;26;20320;-79
2024/04/29 11:31:18;;;;;;;3.53;1.00;;;;;;;;;;5526405;26;20331;-79
2024/04/29 11:33:44;;;;;;;2.80;0.70;;;;;;;;;;5494300;26;20371;-80
2024/04/29 11:36:10;;;;;;;5.28;0.93;;;;;;;;;;5526666;26;20910;-79
2024/04/29 11:38:36;;;;;;;1.85;0.68;;;;;;;;;;5520539;26;20397;-80
2024/04/29 11:41:02;;;;;;;1.90;0.60;;;;;;;;;;5526399;26;20489;-79
2024/04/29 11:43:28;;;;;;;2.23;0.50;;;;;;;;;;5526924;26;20374;-79
2024/04/29 11:45:54;;;;;;;3.53;0.93;;;;;;;;;;5526975;26;20714;-79
2024/04/29 11:48:20;;;;;;;2.00;0.70;;;;;;;;;;5525487;26;20331;-79
2024/04/29 11:50:46;;;;;;;4.93;0.60;;;;;;;;;;5526338;26;20324;-79
2024/04/29 11:53:12;;;;;;;1.50;0.65;;;;;;;;;;5525725;26;20328;-79
2024/04/29 11:55:38;;;;;;;1.27;0.60;;;;;;;;;;5510976;26;20322;-79
2024/04/29 11:58:04;;;;;;;2.58;0.80;;;;;;;;;;5530447;26;20828;-79
2024/04/29 12:00:30;;;;;;;2.70;0.82;;;;;;;;;;5530110;26;20403;-79
2024/04/29 12:02:56;;;;;;;4.10;0.95;;;;;;;;;;5530502;26;20358;-79
2024/04/29 12:05:22;;;;;;;3.22;0.80;;;;;;;;;;5530237;26;20375;-79
2024/04/29 12:07:48;;;;;;;3.40;0.80;;;;;;;;;;5529578;26;23764;-79
2024/04/29 12:10:14;;;;;;;2.47;0.85;;;;;;;;;;5530074;26;20375;-79
2024/04/29 12:12:40;;;;;;;1.45;0.60;;;;;;;;;;5529882;26;20334;-79
2024/04/29 12:15:06;;;;;;;1.52;0.68;;;;;;;;;;5530041;26;20343;-79
2024/04/29 12:17:32;;;;;;;2.43;0.90;;;;;;;;;;5530156;26;20434;-80
2024/04/29 12:19:58;;;;;;;2.73;0.90;;;;;;;;;;5529403;26;20331;-80
2024/04/29 12:22:24;;;;;;;2.42;0.90;;;;;;;;;;5529868;26;20856;-79
2024/04/29 12:24:51;;;;;;;4.78;0.80;;;;;;;;;;5529989;26;20327;-79
2024/04/29 12:27:17;;;;;;;2.05;0.70;;;;;;;;;;5529634;26;20327;-79
2024/04/29 12:29:42;;;;;;;4.55;0.82;;;;;;;;;;5529745;26;20355;-79
2024/04/29 12:32:08;;;;;;;1.88;0.73;;;;;;;;;;5529599;26;20369;-79
2024/04/29 12:34:34;;;;;;;4.07;0.90;;;;;;;;;;5529704;26;20672;-80
2024/04/29 12:37:03;;;;;;;4.70;1.10;;;;;;;;;;5529929;26;20323;-80
2024/04/29 12:39:29;;;;;;;2.08;0.70;;;;;;;;;;5530708;26;20335;-80
2024/04/29 12:41:55;;;;;;;3.45;0.70;;;;;;;;;;5530619;26;20373;-80
2024/04/29 12:44:21;;;;;;;3.05;0.98;;;;;;;;;;5530301;26;20335;-80
2024/04/29 12:46:47;;;;;;;1.73;0.77;;;;;;;;;;5530106;26;20383;-80
2024/04/29 12:49:13;;;;;;;2.07;0.63;;;;;;;;;;5529884;26;20851;-80
2024/04/29 12:51:39;;;;;;;2.30;0.70;;;;;;;;;;5529540;26;20340;-80
2024/04/29 12:54:05;;;;;;;1.85;0.80;;;;;;;;;;5529655;26;20449;-80
2024/04/29 12:56:31;;;;;;;2.47;0.90;;;;;;;;;;5514178;26;20366;-80
2024/04/29 12:58:57;;;;;;;2.75;0.70;;;;;;;;;;5530011;26;20411;-80
2024/04/29 13:01:23;;;;;;;1.45;0.60;;;;;;;;;;5529570;26;20773;-80
2024/04/29 13:03:49;;;;;;;2.85;0.70;;;;;;;;;;5530016;26;20323;-80
2024/04/29 13:06:15;;;;;;;1.75;0.70;;;;;;;;;;5529954;26;20332;-80
2024/04/29 13:08:41;;;;;;;3.97;0.73;;;;;;;;;;5528591;26;20421;-80
2024/04/29 13:11:07;;;;;;;3.58;0.82;;;;;;;;;;5529791;26;20440;-80
2024/04/29 13:13:33;;;;;;;3.97;0.80;;;;;;;;;;5529376;26;20312;-80
2024/04/29 13:16:00;;;;;;;3.10;0.73;;;;;;;;;;5530130;26;20327;-80
2024/04/29 13:18:26;;;;;;;4.90;1.10;;;;;;;;;;5529622;26;20363;-80
2024/04/29 13:20:52;;;;;;;4.05;0.80;;;;;;;;;;5529855;26;20323;-80
2024/04/29 13:23:18;;;;;;;2.13;0.70;;;;;;;;;;5529300;26;20354;-80
2024/04/29 13:25:44;;;;;;;2.53;0.70;;;;;;;;;;5529716;26;20327;-80
2024/04/29 13:28:10;;;;;;;4.80;0.90;;;;;;;;;;5529693;26;20820;-80
2024/04/29 13:30:36;;;;;;;3.92;1.05;;;;;;;;;;5528940;26;20376;-80
2024/04/29 13:33:02;;;;;;;3.43;0.70;;;;;;;;;;5528721;26;20446;-80
2024/04/29 13:35:28;;;;;;;1.80;0.80;;;;;;;;;;5529856;26;20957;-80
2024/04/29 13:37:54;;;;;;;4.63;1.00;;;;;;;;;;5529424;26;20327;-80
2024/04/29 13:40:20;;;;;;;2.80;0.87;;;;;;;;;;5506822;26;20334;-80
2024/04/29 13:42:46;;;;;;;3.47;0.80;;;;;;;;;;5528976;26;20360;-80
2024/04/29 13:45:12;;;;;;;2.20;0.73;;;;;;;;;;5529961;26;20368;-80
2024/04/29 13:47:38;;;;;;;3.57;0.60;;;;;;;;;;5529313;26;20670;-80
2024/04/29 13:50:04;;;;;;;3.45;0.90;;;;;;;;;;5529050;26;20348;-80
2024/04/29 13:52:30;;;;;;;3.30;0.82;;;;;;;;;;5529123;26;20351;-80
2024/04/29 13:54:56;;;;;;;1.67;0.65;;;;;;;;;;5523465;26;20362;-80
2024/04/29 13:57:22;;;;;;;4.13;0.77;;;;;;;;;;5520015;26;20808;-80
2024/04/29 13:59:49;;;;;;;3.35;0.93;;;;;;;;;;5529029;26;20375;-80
2024/04/29 14:02:15;;;;;;;2.28;0.70;;;;;;;;;;5529107;26;20328;-80
2024/04/29 14:04:41;;;;;;;2.30;0.70;;;;;;;;;;5528907;26;20327;-80
2024/04/29 14:07:07;;;;;;;3.58;1.00;;;;;;;;;;5529279;26;20358;-80
2024/04/29 14:09:33;;;;;;;3.22;0.85;;;;;;;;;;5529051;26;20324;-80
2024/04/29 14:11:59;;;;;;;3.42;0.82;;;;;;;;;;5528570;26;20883;-80
2024/04/29 14:14:26;;;;;;;4.37;0.97;;;;;;;;;;5529443;26;20580;-80
2024/04/29 14:16:52;;;;;;;5.18;0.95;;;;;;;;;;5528328;26;20350;-80
2024/04/29 14:19:18;;;;;;;1.25;0.63;;;;;;;;;;5528489;26;20327;-80
2024/04/29 14:21:44;;;;;;;3.13;0.90;;;;;;;;;;5528399;26;20429;-80
2024/04/29 14:24:10;;;;;;;4.90;1.10;;;;;;;;;;5529360;26;20332;-80
2024/04/29 14:26:36;;;;;;;3.72;0.90;;;;;;;;;;5529091;26;20339;-80
2024/04/29 14:29:02;;;;;;;4.07;1.00;;;;;;;;;;5528919;26;20335;-80
2024/04/29 14:31:28;;;;;;;3.50;0.93;;;;;;;;;;5529599;26;20672;-80
2024/04/29 14:33:54;;;;;;;3.75;0.93;;;;;;;;;;5528977;26;20320;-80
2024/04/29 14:36:20;;;;;;;1.70;0.80;;;;;;;;;;5529395;26;20403;-80